sensor_id;sensor_type;location;lat;lon;timestamp;P1;durP1;ratioP1;P2;durP2;ratioP2
5995;SDS011;3026;53.612;7.278;2024-02-26T00:01:04;1.00;;;1.00;;
5995;SDS011;3026;53.612;7.278;2024-02-26T00:03:31;1.30;;;1.20;;
5995;SDS011;3026;53.612;7.278;2024-02-26T00:06:02;1.20;;;1.10;;
5995;SDS011;3026;53.612;7.278;2024-02-26T00:08:29;1.40;;;1.13;;
5995;SDS011;3026;53.612;7.278;2024-02-26T00:10:57;1.57;;;1.30;;
5995;SDS011;3026;53.612;7.278;2024-02-26T00:13:24;2.30;;;1.70;;
5995;SDS011;3026;53.612;7.278;2024-02-26T00:15:54;1.53;;;1.30;;
5995;SDS011;3026;53.612;7.278;2024-02-26T00:18:21;1.90;;;1.27;;
5995;SDS011;3026;53.612;7.278;2024-02-26T00:20:48;1.50;;;1.10;;
5995;SDS011;3026;53.612;7.278;2024-02-26T00:23:15;1.20;;;1.20;;
5995;SDS011;3026;53.612;7.278;2024-02-26T00:25:43;1.57;;;1.43;;
5995;SDS011;3026;53.612;7.278;2024-02-26T00:28:10;2.70;;;1.37;;
5995;SDS011;3026;53.612;7.278;2024-02-26T00:30:41;1.33;;;1.20;;
5995;SDS011;3026;53.612;7.278;2024-02-26T00:33:09;1.30;;;1.20;;
5995;SDS011;3026;53.612;7.278;2024-02-26T00:35:37;2.00;;;1.80;;
5995;SDS011;3026;53.612;7.278;2024-02-26T00:38:04;1.60;;;1.50;;
5995;SDS011;3026;53.612;7.278;2024-02-26T00:40:32;2.67;;;2.23;;
5995;SDS011;3026;53.612;7.278;2024-02-26T00:42:59;1.40;;;1.30;;
5995;SDS011;3026;53.612;7.278;2024-02-26T00:45:27;3.10;;;1.70;;
5995;SDS011;3026;53.612;7.278;2024-02-26T00:47:54;4.00;;;1.87;;
5995;SDS011;3026;53.612;7.278;2024-02-26T00:50:24;2.77;;;1.70;;
5995;SDS011;3026;53.612;7.278;2024-02-26T00:52:51;1.97;;;1.50;;
5995;SDS011;3026;53.612;7.278;2024-02-26T00:55:20;1.70;;;1.60;;
5995;SDS011;3026;53.612;7.278;2024-02-26T00:57:49;1.87;;;1.50;;
5995;SDS011;3026;53.612;7.278;2024-02-26T01:00:17;2.40;;;1.40;;
5995;SDS011;3026;53.612;7.278;2024-02-26T01:02:45;3.57;;;1.67;;
5995;SDS011;3026;53.612;7.278;2024-02-26T01:05:20;2.57;;;1.43;;
5995;SDS011;3026;53.612;7.278;2024-02-26T01:07:49;1.60;;;1.50;;
5995;SDS011;3026;53.612;7.278;2024-02-26T01:10:16;3.53;;;1.60;;
5995;SDS011;3026;53.612;7.278;2024-02-26T01:12:45;1.77;;;1.60;;
5995;SDS011;3026;53.612;7.278;2024-02-26T01:15:15;2.40;;;1.30;;
5995;SDS011;3026;53.612;7.278;2024-02-26T01:17:44;2.90;;;1.57;;
5995;SDS011;3026;53.612;7.278;2024-02-26T01:20:11;2.40;;;1.50;;
5995;SDS011;3026;53.612;7.278;2024-02-26T01:22:38;2.57;;;1.60;;
5995;SDS011;3026;53.612;7.278;2024-02-26T01:25:08;2.67;;;1.67;;
5995;SDS011;3026;53.612;7.278;2024-02-26T01:27:36;2.83;;;1.60;;
5995;SDS011;3026;53.612;7.278;2024-02-26T01:30:05;1.70;;;1.60;;
5995;SDS011;3026;53.612;7.278;2024-02-26T01:32:33;3.77;;;2.47;;
5995;SDS011;3026;53.612;7.278;2024-02-26T01:35:01;1.70;;;1.50;;
5995;SDS011;3026;53.612;7.278;2024-02-26T01:37:30;3.10;;;1.73;;
5995;SDS011;3026;53.612;7.278;2024-02-26T01:39:58;1.83;;;1.73;;
5995;SDS011;3026;53.612;7.278;2024-02-26T01:42:26;2.53;;;1.60;;
5995;SDS011;3026;53.612;7.278;2024-02-26T01:44:54;2.27;;;2.03;;
5995;SDS011;3026;53.612;7.278;2024-02-26T01:47:22;2.30;;;1.93;;
5995;SDS011;3026;53.612;7.278;2024-02-26T01:49:50;3.23;;;1.87;;
5995;SDS011;3026;53.612;7.278;2024-02-26T01:52:17;2.47;;;1.60;;
5995;SDS011;3026;53.612;7.278;2024-02-26T01:54:45;2.20;;;1.93;;
5995;SDS011;3026;53.612;7.278;2024-02-26T01:57:13;3.33;;;2.10;;
5995;SDS011;3026;53.612;7.278;2024-02-26T01:59:47;4.60;;;2.17;;
5995;SDS011;3026;53.612;7.278;2024-02-26T02:02:15;4.33;;;1.90;;
5995;SDS011;3026;53.612;7.278;2024-02-26T02:04:42;1.83;;;1.70;;
5995;SDS011;3026;53.612;7.278;2024-02-26T02:07:09;3.37;;;2.03;;
5995;SDS011;3026;53.612;7.278;2024-02-26T02:09:38;4.63;;;2.60;;
5995;SDS011;3026;53.612;7.278;2024-02-26T02:12:06;5.97;;;1.83;;
5995;SDS011;3026;53.612;7.278;2024-02-26T02:14:35;4.57;;;2.23;;
5995;SDS011;3026;53.612;7.278;2024-02-26T02:17:03;2.57;;;1.90;;
5995;SDS011;3026;53.612;7.278;2024-02-26T02:19:31;3.60;;;2.17;;
5995;SDS011;3026;53.612;7.278;2024-02-26T02:22:01;3.17;;;1.90;;
5995;SDS011;3026;53.612;7.278;2024-02-26T02:24:31;2.60;;;2.07;;
5995;SDS011;3026;53.612;7.278;2024-02-26T02:26:58;2.23;;;1.83;;
5995;SDS011;3026;53.612;7.278;2024-02-26T02:29:26;2.13;;;1.90;;
5995;SDS011;3026;53.612;7.278;2024-02-26T02:31:53;5.00;;;2.40;;
5995;SDS011;3026;53.612;7.278;2024-02-26T02:34:21;5.33;;;2.40;;
5995;SDS011;3026;53.612;7.278;2024-02-26T02:36:49;6.70;;;2.30;;
5995;SDS011;3026;53.612;7.278;2024-02-26T02:39:21;2.73;;;2.17;;
5995;SDS011;3026;53.612;7.278;2024-02-26T02:41:48;2.40;;;2.00;;
5995;SDS011;3026;53.612;7.278;2024-02-26T02:44:16;3.93;;;2.23;;
5995;SDS011;3026;53.612;7.278;2024-02-26T02:46:43;1.87;;;1.77;;
5995;SDS011;3026;53.612;7.278;2024-02-26T02:49:10;1.90;;;1.80;;
5995;SDS011;3026;53.612;7.278;2024-02-26T02:51:37;2.77;;;1.80;;
5995;SDS011;3026;53.612;7.278;2024-02-26T02:54:05;3.67;;;1.80;;
5995;SDS011;3026;53.612;7.278;2024-02-26T02:56:34;1.73;;;1.60;;
5995;SDS011;3026;53.612;7.278;2024-02-26T02:59:01;2.80;;;1.50;;
5995;SDS011;3026;53.612;7.278;2024-02-26T03:01:29;2.73;;;1.70;;
5995;SDS011;3026;53.612;7.278;2024-02-26T03:03:58;2.67;;;1.60;;
5995;SDS011;3026;53.612;7.278;2024-02-26T03:06:25;2.73;;;1.73;;
5995;SDS011;3026;53.612;7.278;2024-02-26T03:08:54;3.23;;;2.00;;
5995;SDS011;3026;53.612;7.278;2024-02-26T03:11:22;1.53;;;1.40;;
5995;SDS011;3026;53.612;7.278;2024-02-26T03:13:51;4.00;;;2.00;;
5995;SDS011;3026;53.612;7.278;2024-02-26T03:16:21;1.80;;;1.70;;
5995;SDS011;3026;53.612;7.278;2024-02-26T03:18:49;1.63;;;1.53;;
5995;SDS011;3026;53.612;7.278;2024-02-26T03:21:17;2.70;;;1.80;;
5995;SDS011;3026;53.612;7.278;2024-02-26T03:23:44;1.97;;;1.37;;
5995;SDS011;3026;53.612;7.278;2024-02-26T03:26:13;3.90;;;1.30;;
5995;SDS011;3026;53.612;7.278;2024-02-26T03:28:40;2.03;;;1.47;;
5995;SDS011;3026;53.612;7.278;2024-02-26T03:31:09;1.80;;;1.60;;
5995;SDS011;3026;53.612;7.278;2024-02-26T03:33:37;2.10;;;1.90;;
5995;SDS011;3026;53.612;7.278;2024-02-26T03:36:04;1.63;;;1.53;;
5995;SDS011;3026;53.612;7.278;2024-02-26T03:38:35;1.40;;;1.30;;
5995;SDS011;3026;53.612;7.278;2024-02-26T03:41:03;1.27;;;1.17;;
5995;SDS011;3026;53.612;7.278;2024-02-26T03:43:30;2.27;;;1.30;;
5995;SDS011;3026;53.612;7.278;2024-02-26T03:45:58;2.67;;;1.87;;
5995;SDS011;3026;53.612;7.278;2024-02-26T03:48:27;2.97;;;1.50;;
5995;SDS011;3026;53.612;7.278;2024-02-26T03:50:54;1.40;;;1.30;;
5995;SDS011;3026;53.612;7.278;2024-02-26T03:53:21;1.67;;;1.37;;
5995;SDS011;3026;53.612;7.278;2024-02-26T03:55:49;1.50;;;1.40;;
5995;SDS011;3026;53.612;7.278;2024-02-26T03:58:17;1.87;;;1.50;;
5995;SDS011;3026;53.612;7.278;2024-02-26T04:00:44;3.10;;;1.50;;
5995;SDS011;3026;53.612;7.278;2024-02-26T04:03:13;1.57;;;1.40;;
5995;SDS011;3026;53.612;7.278;2024-02-26T04:05:42;1.73;;;1.10;;
5995;SDS011;3026;53.612;7.278;2024-02-26T04:08:09;1.77;;;1.30;;
5995;SDS011;3026;53.612;7.278;2024-02-26T04:10:37;1.20;;;1.13;;
5995;SDS011;3026;53.612;7.278;2024-02-26T04:13:07;1.90;;;1.17;;
5995;SDS011;3026;53.612;7.278;2024-02-26T04:15:35;2.13;;;0.97;;
5995;SDS011;3026;53.612;7.278;2024-02-26T04:18:02;1.70;;;0.90;;
5995;SDS011;3026;53.612;7.278;2024-02-26T04:20:30;2.10;;;1.10;;
5995;SDS011;3026;53.612;7.278;2024-02-26T04:22:59;0.93;;;0.93;;
5995;SDS011;3026;53.612;7.278;2024-02-26T04:25:26;2.43;;;1.00;;
5995;SDS011;3026;53.612;7.278;2024-02-26T04:27:54;1.00;;;1.00;;
5995;SDS011;3026;53.612;7.278;2024-02-26T04:30:21;1.20;;;1.10;;
5995;SDS011;3026;53.612;7.278;2024-02-26T04:32:48;2.50;;;1.43;;
5995;SDS011;3026;53.612;7.278;2024-02-26T04:35:16;1.20;;;1.10;;
5995;SDS011;3026;53.612;7.278;2024-02-26T04:37:43;1.37;;;1.23;;
5995;SDS011;3026;53.612;7.278;2024-02-26T04:40:13;3.40;;;1.40;;
5995;SDS011;3026;53.612;7.278;2024-02-26T04:42:42;1.63;;;1.20;;
5995;SDS011;3026;53.612;7.278;2024-02-26T04:45:11;1.30;;;1.20;;
5995;SDS011;3026;53.612;7.278;2024-02-26T04:47:38;1.30;;;1.20;;
5995;SDS011;3026;53.612;7.278;2024-02-26T04:50:06;2.20;;;1.30;;
5995;SDS011;3026;53.612;7.278;2024-02-26T04:52:35;2.00;;;1.40;;
5995;SDS011;3026;53.612;7.278;2024-02-26T04:55:04;1.20;;;1.10;;
5995;SDS011;3026;53.612;7.278;2024-02-26T04:57:32;1.67;;;1.30;;
5995;SDS011;3026;53.612;7.278;2024-02-26T05:00:00;2.37;;;1.23;;
5995;SDS011;3026;53.612;7.278;2024-02-26T05:02:30;1.60;;;1.50;;
5995;SDS011;3026;53.612;7.278;2024-02-26T05:04:59;1.87;;;1.67;;
5995;SDS011;3026;53.612;7.278;2024-02-26T05:07:26;2.37;;;1.53;;
5995;SDS011;3026;53.612;7.278;2024-02-26T05:09:53;1.73;;;1.63;;
5995;SDS011;3026;53.612;7.278;2024-02-26T05:12:21;1.67;;;1.50;;
5995;SDS011;3026;53.612;7.278;2024-02-26T05:14:49;1.60;;;1.50;;
5995;SDS011;3026;53.612;7.278;2024-02-26T05:17:18;2.20;;;1.23;;
5995;SDS011;3026;53.612;7.278;2024-02-26T05:19:45;2.00;;;1.13;;
5995;SDS011;3026;53.612;7.278;2024-02-26T05:22:12;1.80;;;1.47;;
5995;SDS011;3026;53.612;7.278;2024-02-26T05:24:39;1.93;;;1.70;;
5995;SDS011;3026;53.612;7.278;2024-02-26T05:27:07;3.27;;;1.40;;
5995;SDS011;3026;53.612;7.278;2024-02-26T05:29:35;1.33;;;1.13;;
5995;SDS011;3026;53.612;7.278;2024-02-26T05:32:05;1.47;;;1.00;;
5995;SDS011;3026;53.612;7.278;2024-02-26T05:34:32;1.40;;;1.30;;
5995;SDS011;3026;53.612;7.278;2024-02-26T05:37:02;2.43;;;1.40;;
5995;SDS011;3026;53.612;7.278;2024-02-26T05:39:29;1.67;;;1.30;;
5995;SDS011;3026;53.612;7.278;2024-02-26T05:41:57;2.87;;;1.50;;
5995;SDS011;3026;53.612;7.278;2024-02-26T05:44:25;3.13;;;1.20;;
5995;SDS011;3026;53.612;7.278;2024-02-26T05:46:53;2.37;;;0.93;;
5995;SDS011;3026;53.612;7.278;2024-02-26T05:49:22;1.10;;;1.00;;
5995;SDS011;3026;53.612;7.278;2024-02-26T05:51:49;1.13;;;0.90;;
5995;SDS011;3026;53.612;7.278;2024-02-26T05:54:16;1.17;;;0.90;;
5995;SDS011;3026;53.612;7.278;2024-02-26T05:56:44;1.30;;;1.10;;
5995;SDS011;3026;53.612;7.278;2024-02-26T05:59:11;1.63;;;0.90;;
5995;SDS011;3026;53.612;7.278;2024-02-26T06:01:40;3.37;;;0.90;;
5995;SDS011;3026;53.612;7.278;2024-02-26T06:04:08;1.13;;;1.03;;
5995;SDS011;3026;53.612;7.278;2024-02-26T06:06:38;3.33;;;1.10;;
5995;SDS011;3026;53.612;7.278;2024-02-26T06:09:05;1.33;;;1.03;;
5995;SDS011;3026;53.612;7.278;2024-02-26T06:11:38;1.20;;;1.00;;
5995;SDS011;3026;53.612;7.278;2024-02-26T06:14:06;3.43;;;1.20;;
5995;SDS011;3026;53.612;7.278;2024-02-26T06:16:33;2.00;;;1.13;;
5995;SDS011;3026;53.612;7.278;2024-02-26T06:19:01;4.90;;;1.20;;
5995;SDS011;3026;53.612;7.278;2024-02-26T06:21:30;4.50;;;1.33;;
5995;SDS011;3026;53.612;7.278;2024-02-26T06:23:59;1.33;;;1.10;;
5995;SDS011;3026;53.612;7.278;2024-02-26T06:26:26;0.97;;;0.90;;
5995;SDS011;3026;53.612;7.278;2024-02-26T06:28:55;1.40;;;1.00;;
5995;SDS011;3026;53.612;7.278;2024-02-26T06:31:23;1.87;;;1.10;;
5995;SDS011;3026;53.612;7.278;2024-02-26T06:33:53;2.63;;;1.00;;
5995;SDS011;3026;53.612;7.278;2024-02-26T06:36:21;1.60;;;0.73;;
5995;SDS011;3026;53.612;7.278;2024-02-26T06:38:48;0.80;;;0.80;;
5995;SDS011;3026;53.612;7.278;2024-02-26T06:41:18;1.80;;;1.00;;
5995;SDS011;3026;53.612;7.278;2024-02-26T06:43:46;2.27;;;0.93;;
5995;SDS011;3026;53.612;7.278;2024-02-26T06:46:13;1.23;;;1.13;;
5995;SDS011;3026;53.612;7.278;2024-02-26T06:48:42;2.33;;;1.07;;
5995;SDS011;3026;53.612;7.278;2024-02-26T06:51:09;2.10;;;1.43;;
5995;SDS011;3026;53.612;7.278;2024-02-26T06:53:36;2.77;;;1.30;;
5995;SDS011;3026;53.612;7.278;2024-02-26T06:56:04;1.57;;;1.03;;
5995;SDS011;3026;53.612;7.278;2024-02-26T06:58:38;1.60;;;1.50;;
5995;SDS011;3026;53.612;7.278;2024-02-26T07:01:06;1.40;;;1.30;;
5995;SDS011;3026;53.612;7.278;2024-02-26T07:03:34;2.23;;;1.43;;
5995;SDS011;3026;53.612;7.278;2024-02-26T07:06:01;2.00;;;1.80;;
5995;SDS011;3026;53.612;7.278;2024-02-26T07:08:30;2.47;;;2.20;;
5995;SDS011;3026;53.612;7.278;2024-02-26T07:10:57;4.03;;;2.20;;
5995;SDS011;3026;53.612;7.278;2024-02-26T07:13:24;3.57;;;2.60;;
5995;SDS011;3026;53.612;7.278;2024-02-26T07:15:54;2.77;;;2.30;;
5995;SDS011;3026;53.612;7.278;2024-02-26T07:18:21;4.20;;;2.07;;
5995;SDS011;3026;53.612;7.278;2024-02-26T07:20:48;2.90;;;2.40;;
5995;SDS011;3026;53.612;7.278;2024-02-26T07:23:17;3.90;;;1.60;;
5995;SDS011;3026;53.612;7.278;2024-02-26T07:25:44;1.50;;;1.40;;
5995;SDS011;3026;53.612;7.278;2024-02-26T07:28:14;1.70;;;1.50;;
5995;SDS011;3026;53.612;7.278;2024-02-26T07:30:41;1.17;;;1.07;;
5995;SDS011;3026;53.612;7.278;2024-02-26T07:33:10;3.43;;;2.00;;
5995;SDS011;3026;53.612;7.278;2024-02-26T07:35:37;1.30;;;1.20;;
5995;SDS011;3026;53.612;7.278;2024-02-26T07:38:05;3.00;;;1.10;;
5995;SDS011;3026;53.612;7.278;2024-02-26T07:40:33;1.67;;;1.30;;
5995;SDS011;3026;53.612;7.278;2024-02-26T07:43:00;1.57;;;1.13;;
5995;SDS011;3026;53.612;7.278;2024-02-26T07:45:28;1.37;;;1.10;;
5995;SDS011;3026;53.612;7.278;2024-02-26T07:47:55;1.20;;;1.10;;
5995;SDS011;3026;53.612;7.278;2024-02-26T07:50:24;1.87;;;1.77;;
5995;SDS011;3026;53.612;7.278;2024-02-26T07:52:51;1.60;;;1.50;;
5995;SDS011;3026;53.612;7.278;2024-02-26T07:55:20;2.27;;;1.70;;
5995;SDS011;3026;53.612;7.278;2024-02-26T07:57:48;1.53;;;1.20;;
5995;SDS011;3026;53.612;7.278;2024-02-26T08:00:15;2.07;;;1.27;;
5995;SDS011;3026;53.612;7.278;2024-02-26T08:02:43;1.47;;;1.37;;
5995;SDS011;3026;53.612;7.278;2024-02-26T08:05:10;1.97;;;1.30;;
5995;SDS011;3026;53.612;7.278;2024-02-26T08:07:39;2.03;;;1.43;;
5995;SDS011;3026;53.612;7.278;2024-02-26T08:10:06;2.03;;;1.40;;
5995;SDS011;3026;53.612;7.278;2024-02-26T08:12:34;1.70;;;1.10;;
5995;SDS011;3026;53.612;7.278;2024-02-26T08:15:01;3.07;;;1.27;;
5995;SDS011;3026;53.612;7.278;2024-02-26T08:17:28;2.00;;;1.80;;
5995;SDS011;3026;53.612;7.278;2024-02-26T08:19:58;1.83;;;1.60;;
5995;SDS011;3026;53.612;7.278;2024-02-26T08:22:25;2.43;;;2.10;;
5995;SDS011;3026;53.612;7.278;2024-02-26T08:24:54;2.57;;;1.93;;
5995;SDS011;3026;53.612;7.278;2024-02-26T08:27:22;2.80;;;1.80;;
5995;SDS011;3026;53.612;7.278;2024-02-26T08:29:49;2.97;;;2.47;;
5995;SDS011;3026;53.612;7.278;2024-02-26T08:32:16;1.83;;;1.67;;
5995;SDS011;3026;53.612;7.278;2024-02-26T08:34:44;2.57;;;1.30;;
5995;SDS011;3026;53.612;7.278;2024-02-26T08:37:11;2.57;;;1.60;;
5995;SDS011;3026;53.612;7.278;2024-02-26T08:39:38;2.20;;;1.20;;
5995;SDS011;3026;53.612;7.278;2024-02-26T08:42:07;1.33;;;1.20;;
5995;SDS011;3026;53.612;7.278;2024-02-26T08:44:35;1.30;;;1.20;;
5995;SDS011;3026;53.612;7.278;2024-02-26T08:47:03;1.50;;;1.40;;
5995;SDS011;3026;53.612;7.278;2024-02-26T08:49:32;2.97;;;1.53;;
5995;SDS011;3026;53.612;7.278;2024-02-26T08:52:00;1.53;;;1.20;;
5995;SDS011;3026;53.612;7.278;2024-02-26T08:54:27;1.70;;;1.60;;
5995;SDS011;3026;53.612;7.278;2024-02-26T08:56:55;2.60;;;1.50;;
5995;SDS011;3026;53.612;7.278;2024-02-26T08:59:23;3.13;;;1.83;;
5995;SDS011;3026;53.612;7.278;2024-02-26T09:01:51;2.83;;;1.43;;
5995;SDS011;3026;53.612;7.278;2024-02-26T09:04:18;1.47;;;1.23;;
5995;SDS011;3026;53.612;7.278;2024-02-26T09:06:46;1.50;;;1.40;;
5995;SDS011;3026;53.612;7.278;2024-02-26T09:09:14;1.50;;;1.40;;
5995;SDS011;3026;53.612;7.278;2024-02-26T09:11:41;1.23;;;1.10;;
5995;SDS011;3026;53.612;7.278;2024-02-26T09:14:09;0.80;;;0.80;;
5995;SDS011;3026;53.612;7.278;2024-02-26T09:16:37;1.50;;;1.13;;
5995;SDS011;3026;53.612;7.278;2024-02-26T09:19:04;2.33;;;1.20;;
5995;SDS011;3026;53.612;7.278;2024-02-26T09:21:33;1.00;;;1.00;;
5995;SDS011;3026;53.612;7.278;2024-02-26T09:24:00;1.13;;;1.03;;
5995;SDS011;3026;53.612;7.278;2024-02-26T09:26:27;1.37;;;1.27;;
5995;SDS011;3026;53.612;7.278;2024-02-26T09:28:55;1.50;;;1.30;;
5995;SDS011;3026;53.612;7.278;2024-02-26T09:31:22;3.50;;;1.50;;
5995;SDS011;3026;53.612;7.278;2024-02-26T09:33:52;2.17;;;1.30;;
5995;SDS011;3026;53.612;7.278;2024-02-26T09:36:19;1.67;;;1.57;;
5995;SDS011;3026;53.612;7.278;2024-02-26T09:38:46;2.63;;;1.20;;
5995;SDS011;3026;53.612;7.278;2024-02-26T09:41:16;3.43;;;1.63;;
5995;SDS011;3026;53.612;7.278;2024-02-26T09:43:44;1.60;;;1.50;;
5995;SDS011;3026;53.612;7.278;2024-02-26T09:46:11;2.60;;;1.83;;
5995;SDS011;3026;53.612;7.278;2024-02-26T09:48:42;2.77;;;2.00;;
5995;SDS011;3026;53.612;7.278;2024-02-26T09:51:13;2.23;;;2.03;;
5995;SDS011;3026;53.612;7.278;2024-02-26T09:53:43;3.40;;;2.57;;
5995;SDS011;3026;53.612;7.278;2024-02-26T09:56:11;3.30;;;2.63;;
5995;SDS011;3026;53.612;7.278;2024-02-26T09:58:41;2.53;;;2.33;;
5995;SDS011;3026;53.612;7.278;2024-02-26T10:01:11;3.20;;;2.40;;
5995;SDS011;3026;53.612;7.278;2024-02-26T10:03:40;3.80;;;2.47;;
5995;SDS011;3026;53.612;7.278;2024-02-26T10:06:10;4.93;;;3.40;;
5995;SDS011;3026;53.612;7.278;2024-02-26T10:08:40;4.03;;;2.93;;
5995;SDS011;3026;53.612;7.278;2024-02-26T10:11:08;3.53;;;2.80;;
5995;SDS011;3026;53.612;7.278;2024-02-26T10:13:39;3.60;;;2.67;;
5995;SDS011;3026;53.612;7.278;2024-02-26T10:16:06;3.67;;;2.53;;
5995;SDS011;3026;53.612;7.278;2024-02-26T10:18:45;5.13;;;2.93;;
5995;SDS011;3026;53.612;7.278;2024-02-26T10:21:13;2.43;;;2.20;;
5995;SDS011;3026;53.612;7.278;2024-02-26T10:23:45;4.67;;;3.23;;
5995;SDS011;3026;53.612;7.278;2024-02-26T10:26:13;3.63;;;2.20;;
5995;SDS011;3026;53.612;7.278;2024-02-26T10:28:42;5.43;;;3.40;;
5995;SDS011;3026;53.612;7.278;2024-02-26T10:31:10;5.87;;;3.70;;
5995;SDS011;3026;53.612;7.278;2024-02-26T10:33:39;6.53;;;3.63;;
5995;SDS011;3026;53.612;7.278;2024-02-26T10:36:07;6.00;;;3.57;;
5995;SDS011;3026;53.612;7.278;2024-02-26T10:38:35;5.70;;;3.40;;
5995;SDS011;3026;53.612;7.278;2024-02-26T10:41:04;6.03;;;4.10;;
5995;SDS011;3026;53.612;7.278;2024-02-26T10:43:35;4.43;;;3.40;;
5995;SDS011;3026;53.612;7.278;2024-02-26T10:46:02;6.33;;;4.83;;
5995;SDS011;3026;53.612;7.278;2024-02-26T10:48:31;6.60;;;4.93;;
5995;SDS011;3026;53.612;7.278;2024-02-26T10:50:58;6.40;;;3.60;;
5995;SDS011;3026;53.612;7.278;2024-02-26T10:53:28;5.73;;;3.63;;
5995;SDS011;3026;53.612;7.278;2024-02-26T10:55:57;5.33;;;4.30;;
5995;SDS011;3026;53.612;7.278;2024-02-26T10:58:30;6.30;;;4.33;;
5995;SDS011;3026;53.612;7.278;2024-02-26T11:00:58;10.03;;;5.07;;
5995;SDS011;3026;53.612;7.278;2024-02-26T11:03:26;7.97;;;4.93;;
5995;SDS011;3026;53.612;7.278;2024-02-26T11:05:58;11.13;;;6.23;;
5995;SDS011;3026;53.612;7.278;2024-02-26T11:08:27;7.63;;;4.30;;
5995;SDS011;3026;53.612;7.278;2024-02-26T11:10:57;6.37;;;3.80;;
5995;SDS011;3026;53.612;7.278;2024-02-26T11:13:28;7.27;;;4.77;;
5995;SDS011;3026;53.612;7.278;2024-02-26T11:15:59;7.27;;;4.70;;
5995;SDS011;3026;53.612;7.278;2024-02-26T11:18:27;7.00;;;4.60;;
5995;SDS011;3026;53.612;7.278;2024-02-26T11:20:55;10.40;;;4.20;;
5995;SDS011;3026;53.612;7.278;2024-02-26T11:23:23;9.10;;;4.47;;
5995;SDS011;3026;53.612;7.278;2024-02-26T11:25:50;5.70;;;4.43;;
5995;SDS011;3026;53.612;7.278;2024-02-26T11:28:21;7.67;;;5.43;;
5995;SDS011;3026;53.612;7.278;2024-02-26T11:30:57;8.67;;;6.47;;
5995;SDS011;3026;53.612;7.278;2024-02-26T11:33:28;5.80;;;5.17;;
5995;SDS011;3026;53.612;7.278;2024-02-26T11:35:57;7.13;;;5.03;;
5995;SDS011;3026;53.612;7.278;2024-02-26T11:38:26;6.37;;;4.70;;
5995;SDS011;3026;53.612;7.278;2024-02-26T11:40:54;6.90;;;4.43;;
5995;SDS011;3026;53.612;7.278;2024-02-26T11:43:23;5.37;;;4.57;;
5995;SDS011;3026;53.612;7.278;2024-02-26T11:45:50;5.67;;;4.00;;
5995;SDS011;3026;53.612;7.278;2024-02-26T11:48:28;5.97;;;5.37;;
5995;SDS011;3026;53.612;7.278;2024-02-26T11:50:57;8.43;;;5.10;;
5995;SDS011;3026;53.612;7.278;2024-02-26T11:53:25;6.37;;;5.10;;
5995;SDS011;3026;53.612;7.278;2024-02-26T11:58:40;8.83;;;5.50;;
5995;SDS011;3026;53.612;7.278;2024-02-26T12:04:11;8.20;;;5.80;;
5995;SDS011;3026;53.612;7.278;2024-02-26T12:06:47;8.97;;;6.47;;
5995;SDS011;3026;53.612;7.278;2024-02-26T12:09:35;8.17;;;5.63;;
5995;SDS011;3026;53.612;7.278;2024-02-26T12:12:05;10.77;;;5.60;;
5995;SDS011;3026;53.612;7.278;2024-02-26T12:14:37;10.53;;;6.27;;
5995;SDS011;3026;53.612;7.278;2024-02-26T12:17:07;9.10;;;5.90;;
5995;SDS011;3026;53.612;7.278;2024-02-26T12:19:47;8.03;;;6.10;;
5995;SDS011;3026;53.612;7.278;2024-02-26T12:22:16;9.70;;;6.40;;
5995;SDS011;3026;53.612;7.278;2024-02-26T12:24:43;8.13;;;5.57;;
5995;SDS011;3026;53.612;7.278;2024-02-26T12:27:10;9.47;;;6.37;;
5995;SDS011;3026;53.612;7.278;2024-02-26T12:29:39;9.27;;;5.87;;
5995;SDS011;3026;53.612;7.278;2024-02-26T12:32:06;9.07;;;6.50;;
5995;SDS011;3026;53.612;7.278;2024-02-26T12:34:34;11.83;;;7.00;;
5995;SDS011;3026;53.612;7.278;2024-02-26T12:37:07;8.97;;;6.37;;
5995;SDS011;3026;53.612;7.278;2024-02-26T12:39:35;10.70;;;6.57;;
5995;SDS011;3026;53.612;7.278;2024-02-26T12:42:04;11.07;;;6.37;;
5995;SDS011;3026;53.612;7.278;2024-02-26T12:44:32;8.23;;;5.83;;
5995;SDS011;3026;53.612;7.278;2024-02-26T12:47:02;9.63;;;5.90;;
5995;SDS011;3026;53.612;7.278;2024-02-26T12:49:30;8.90;;;5.83;;
5995;SDS011;3026;53.612;7.278;2024-02-26T12:51:59;9.97;;;5.60;;
5995;SDS011;3026;53.612;7.278;2024-02-26T12:54:29;11.37;;;6.60;;
5995;SDS011;3026;53.612;7.278;2024-02-26T12:56:59;13.73;;;6.87;;
5995;SDS011;3026;53.612;7.278;2024-02-26T12:59:28;10.57;;;5.97;;
5995;SDS011;3026;53.612;7.278;2024-02-26T13:01:56;11.33;;;7.10;;
5995;SDS011;3026;53.612;7.278;2024-02-26T13:04:24;16.57;;;7.07;;
5995;SDS011;3026;53.612;7.278;2024-02-26T13:06:52;10.87;;;6.80;;
5995;SDS011;3026;53.612;7.278;2024-02-26T13:09:20;14.97;;;7.30;;
5995;SDS011;3026;53.612;7.278;2024-02-26T13:11:54;14.20;;;7.13;;
5995;SDS011;3026;53.612;7.278;2024-02-26T13:14:22;11.77;;;6.50;;
5995;SDS011;3026;53.612;7.278;2024-02-26T13:16:54;7.93;;;5.80;;
5995;SDS011;3026;53.612;7.278;2024-02-26T13:19:22;8.83;;;5.70;;
5995;SDS011;3026;53.612;7.278;2024-02-26T13:21:49;8.90;;;5.47;;
5995;SDS011;3026;53.612;7.278;2024-02-26T13:24:16;9.30;;;6.00;;
5995;SDS011;3026;53.612;7.278;2024-02-26T13:26:45;9.07;;;5.23;;
5995;SDS011;3026;53.612;7.278;2024-02-26T13:29:18;6.03;;;4.80;;
5995;SDS011;3026;53.612;7.278;2024-02-26T13:31:45;9.50;;;5.93;;
5995;SDS011;3026;53.612;7.278;2024-02-26T13:34:22;8.40;;;5.63;;
5995;SDS011;3026;53.612;7.278;2024-02-26T13:36:51;7.07;;;5.03;;
5995;SDS011;3026;53.612;7.278;2024-02-26T13:39:21;9.20;;;5.10;;
5995;SDS011;3026;53.612;7.278;2024-02-26T13:41:50;7.30;;;4.80;;
5995;SDS011;3026;53.612;7.278;2024-02-26T13:44:20;4.73;;;3.70;;
5995;SDS011;3026;53.612;7.278;2024-02-26T13:46:47;5.80;;;4.30;;
5995;SDS011;3026;53.612;7.278;2024-02-26T13:49:15;7.93;;;5.00;;
5995;SDS011;3026;53.612;7.278;2024-02-26T13:51:42;10.47;;;5.30;;
5995;SDS011;3026;53.612;7.278;2024-02-26T13:54:17;8.33;;;5.67;;
5995;SDS011;3026;53.612;7.278;2024-02-26T13:56:44;8.47;;;5.57;;
5995;SDS011;3026;53.612;7.278;2024-02-26T13:59:11;9.20;;;5.53;;
5995;SDS011;3026;53.612;7.278;2024-02-26T14:01:42;8.57;;;5.50;;
5995;SDS011;3026;53.612;7.278;2024-02-26T14:04:10;8.13;;;6.00;;
5995;SDS011;3026;53.612;7.278;2024-02-26T14:06:37;12.13;;;6.90;;
5995;SDS011;3026;53.612;7.278;2024-02-26T14:09:08;10.00;;;6.23;;
5995;SDS011;3026;53.612;7.278;2024-02-26T14:11:35;9.00;;;6.40;;
5995;SDS011;3026;53.612;7.278;2024-02-26T14:14:05;12.57;;;6.97;;
5995;SDS011;3026;53.612;7.278;2024-02-26T14:16:32;9.67;;;6.40;;
5995;SDS011;3026;53.612;7.278;2024-02-26T14:19:02;10.70;;;6.73;;
5995;SDS011;3026;53.612;7.278;2024-02-26T14:21:29;9.57;;;5.87;;
5995;SDS011;3026;53.612;7.278;2024-02-26T14:23:55;9.13;;;6.03;;
5995;SDS011;3026;53.612;7.278;2024-02-26T14:26:23;10.33;;;6.30;;
5995;SDS011;3026;53.612;7.278;2024-02-26T14:28:50;12.23;;;6.87;;
5995;SDS011;3026;53.612;7.278;2024-02-26T14:31:17;9.40;;;6.00;;
5995;SDS011;3026;53.612;7.278;2024-02-26T14:33:45;9.23;;;6.67;;
5995;SDS011;3026;53.612;7.278;2024-02-26T14:36:14;9.73;;;5.67;;
5995;SDS011;3026;53.612;7.278;2024-02-26T14:38:42;6.93;;;5.00;;
5995;SDS011;3026;53.612;7.278;2024-02-26T14:41:09;10.20;;;5.87;;
5995;SDS011;3026;53.612;7.278;2024-02-26T14:43:37;9.30;;;6.23;;
5995;SDS011;3026;53.612;7.278;2024-02-26T14:46:04;7.37;;;5.53;;
5995;SDS011;3026;53.612;7.278;2024-02-26T14:48:31;11.30;;;5.80;;
5995;SDS011;3026;53.612;7.278;2024-02-26T14:50:58;6.83;;;5.70;;
5995;SDS011;3026;53.612;7.278;2024-02-26T14:53:29;9.60;;;6.00;;
5995;SDS011;3026;53.612;7.278;2024-02-26T14:55:57;7.63;;;5.77;;
5995;SDS011;3026;53.612;7.278;2024-02-26T14:58:25;8.53;;;6.17;;
5995;SDS011;3026;53.612;7.278;2024-02-26T15:00:52;11.27;;;6.10;;
5995;SDS011;3026;53.612;7.278;2024-02-26T15:03:19;8.53;;;5.80;;
5995;SDS011;3026;53.612;7.278;2024-02-26T15:05:46;10.20;;;6.20;;
5995;SDS011;3026;53.612;7.278;2024-02-26T15:08:14;8.67;;;5.90;;
5995;SDS011;3026;53.612;7.278;2024-02-26T15:10:43;9.00;;;5.70;;
5995;SDS011;3026;53.612;7.278;2024-02-26T15:13:13;9.27;;;5.97;;
5995;SDS011;3026;53.612;7.278;2024-02-26T15:15:41;10.40;;;5.40;;
5995;SDS011;3026;53.612;7.278;2024-02-26T15:18:08;8.33;;;5.93;;
5995;SDS011;3026;53.612;7.278;2024-02-26T15:20:37;11.87;;;6.23;;
5995;SDS011;3026;53.612;7.278;2024-02-26T15:23:04;7.67;;;6.07;;
5995;SDS011;3026;53.612;7.278;2024-02-26T15:36:12;8.60;;;6.17;;
5995;SDS011;3026;53.612;7.278;2024-02-26T15:38:39;9.63;;;6.23;;